createdAt,value
2022-09-09T00:04:38.367Z,23.85
2022-09-09T00:10:24.823Z,23.84
2022-09-09T00:16:23.734Z,23.83
2022-09-09T00:22:01.422Z,23.81
2022-09-09T00:27:45.010Z,23.81
2022-09-09T00:33:16.038Z,23.80
2022-09-09T00:38:48.345Z,23.80
2022-09-09T00:44:36.261Z,23.80
2022-09-09T00:50:19.243Z,23.77
2022-09-09T00:55:49.101Z,23.76
2022-09-09T01:01:13.130Z,23.75
2022-09-09T01:06:39.586Z,23.75
2022-09-09T01:12:16.292Z,23.75
2022-09-09T01:17:52.542Z,23.73
2022-09-09T01:23:35.830Z,23.72
2022-09-09T01:28:57.775Z,23.72
2022-09-09T01:34:20.850Z,23.70
2022-09-09T01:39:46.174Z,23.69
2022-09-09T01:45:08.532Z,23.68
2022-09-09T01:50:30.347Z,23.68
2022-09-09T01:56:15.015Z,23.69
2022-09-09T02:01:57.169Z,23.68
2022-09-09T02:07:51.075Z,23.66
2022-09-09T02:13:15.496Z,23.64
2022-09-09T02:18:46.206Z,23.63
2022-09-09T02:24:11.392Z,23.63
2022-09-09T02:29:36.955Z,23.61
2022-09-09T02:35:03.876Z,23.62
2022-09-09T02:40:25.764Z,23.61
2022-09-09T02:45:51.995Z,23.61
2022-09-09T02:51:30.330Z,23.60
2022-09-09T02:56:58.571Z,23.60
2022-09-09T03:02:20.446Z,23.58
2022-09-09T03:07:42.883Z,23.57
2022-09-09T03:13:07.549Z,23.56
2022-09-09T03:18:29.425Z,23.56
2022-09-09T03:23:51.834Z,23.55
2022-09-09T03:29:14.054Z,23.55
2022-09-09T03:34:35.848Z,23.54
2022-09-09T03:39:57.623Z,23.52
2022-09-09T03:45:19.873Z,23.54
2022-09-09T03:50:49.205Z,23.53
2022-09-09T03:56:11.571Z,23.50
2022-09-09T04:01:33.451Z,23.50
2022-09-09T04:06:55.375Z,23.50
2022-09-09T04:12:17.793Z,23.48
2022-09-09T04:17:39.753Z,23.49
2022-09-09T04:23:01.413Z,23.48
2022-09-09T04:28:25.042Z,23.48
2022-09-09T04:33:47.669Z,23.47
2022-09-09T04:39:09.404Z,23.47
2022-09-09T04:44:31.429Z,23.46
2022-09-09T04:49:55.553Z,23.45
2022-09-09T04:55:17.262Z,23.45
2022-09-09T05:00:39.002Z,23.44
2022-09-09T05:06:05.358Z,23.44
2022-09-09T05:11:29.601Z,23.43
2022-09-09T05:16:51.738Z,23.42
2022-09-09T05:22:13.411Z,23.41
2022-09-09T05:27:35.933Z,23.41
2022-09-09T05:32:57.994Z,23.41
2022-09-09T05:38:19.725Z,23.42
2022-09-09T05:43:41.370Z,23.43
2022-09-09T05:49:04.109Z,23.45
2022-09-09T05:54:25.797Z,23.45
2022-09-09T05:59:47.591Z,23.46
2022-09-09T06:05:09.618Z,23.52
2022-09-09T06:10:31.212Z,23.58
2022-09-09T06:15:53.323Z,23.66
2022-09-09T06:21:39.366Z,23.72
2022-09-09T06:27:01.437Z,23.70
2022-09-09T06:32:23.230Z,23.66
2022-09-09T06:37:49.971Z,23.63
2022-09-09T06:43:11.631Z,23.62
2022-09-09T06:48:33.897Z,23.60
2022-09-09T06:53:57.675Z,23.60
2022-09-09T06:59:19.316Z,23.60
2022-09-09T07:04:40.963Z,23.58
2022-09-09T07:10:02.635Z,23.56
2022-09-09T07:15:24.651Z,23.53
2022-09-09T07:20:57.311Z,23.53
2022-09-09T07:26:22.801Z,23.50
2022-09-09T07:31:44.530Z,23.49
2022-09-09T07:37:06.425Z,23.48
2022-09-09T07:42:28.802Z,23.46
2022-09-09T07:47:51.486Z,23.45
2022-09-09T07:53:13.228Z,23.43
2022-09-09T07:58:38.283Z,23.42
2022-09-09T08:04:06.011Z,23.42
2022-09-09T08:09:30.230Z,23.41
2022-09-09T08:14:53.002Z,23.40
2022-09-09T08:20:17.486Z,23.36
2022-09-09T08:25:39.133Z,23.38
2022-09-09T08:31:15.102Z,23.39
2022-09-09T08:36:43.542Z,23.38
2022-09-09T08:42:23.823Z,23.39
2022-09-09T08:47:54.350Z,23.37
2022-09-09T08:53:23.557Z,23.37
2022-09-09T08:58:50.100Z,23.34
2022-09-09T09:04:39.456Z,23.34
2022-09-09T09:10:30.607Z,23.31
2022-09-09T09:15:59.175Z,23.31
2022-09-09T09:21:38.070Z,23.31
2022-09-09T09:27:12.878Z,23.30
2022-09-09T09:32:37.536Z,23.29
2022-09-09T09:43:43.803Z,23.28
2022-09-09T09:49:06.917Z,23.26
2022-09-09T09:54:31.669Z,23.25
2022-09-09T10:00:14.308Z,23.25
2022-09-09T10:05:37.176Z,23.25
2022-09-09T10:11:18.216Z,23.25
2022-09-09T10:16:42.881Z,23.23
2022-09-09T10:22:07.886Z,23.22
2022-09-09T10:28:06.326Z,23.22
2022-09-09T10:33:37.194Z,23.22
2022-09-09T10:39:06.683Z,23.22
2022-09-09T10:44:46.863Z,23.24
2022-09-09T10:50:38.016Z,23.24
2022-09-09T10:56:16.258Z,23.22
2022-09-09T11:01:53.245Z,23.21
2022-09-09T11:07:39.544Z,23.23
2022-09-09T11:13:06.253Z,23.24
2022-09-09T11:18:32.866Z,23.25
2022-09-09T11:24:00.554Z,23.26
2022-09-09T11:29:38.240Z,23.27
2022-09-09T11:35:28.167Z,23.28
2022-09-09T11:41:01.604Z,23.28
2022-09-09T11:46:36.459Z,23.29
2022-09-09T11:51:58.696Z,23.27
2022-09-09T11:57:27.364Z,23.31
2022-09-09T12:02:51.379Z,23.35
2022-09-09T12:08:24.340Z,23.39
2022-09-09T12:14:03.463Z,23.41
2022-09-09T12:19:27.052Z,23.42
2022-09-09T12:25:36.580Z,23.42
2022-09-09T12:31:01.701Z,23.42
2022-09-09T12:36:33.679Z,23.46
2022-09-09T12:41:58.598Z,23.46
2022-09-09T12:47:30.136Z,23.48
2022-09-09T12:52:55.569Z,23.49
2022-09-09T12:58:20.087Z,23.49
2022-09-09T13:03:48.436Z,23.50
2022-09-09T13:09:11.293Z,23.47
2022-09-09T13:14:38.459Z,23.45
2022-09-09T13:20:00.177Z,23.46
2022-09-09T13:25:26.834Z,23.46
2022-09-09T13:31:03.279Z,23.47
2022-09-09T13:36:33.147Z,23.47
2022-09-09T13:41:54.922Z,23.48
2022-09-09T13:47:20.851Z,23.48
2022-09-09T13:52:42.561Z,23.49
2022-09-09T13:58:06.365Z,23.49
2022-09-09T14:03:27.996Z,23.48
2022-09-09T14:08:52.884Z,23.48
2022-09-09T14:14:14.755Z,23.48
2022-09-09T14:19:38.171Z,23.48
2022-09-09T14:24:59.858Z,23.47
2022-09-09T14:30:21.509Z,23.47
2022-09-09T14:35:44.190Z,23.47
2022-09-09T14:41:18.024Z,23.47
2022-09-09T14:46:39.657Z,23.48
2022-09-09T14:52:01.394Z,23.49
2022-09-09T14:57:23.020Z,23.49
2022-09-09T15:02:44.730Z,23.48
2022-09-09T15:08:06.855Z,23.50
2022-09-09T15:13:28.634Z,23.49
2022-09-09T15:18:55.248Z,23.49
2022-09-09T15:24:21.800Z,23.46
2022-09-09T15:29:43.561Z,23.42
2022-09-09T15:35:05.686Z,23.38
2022-09-09T15:40:27.383Z,23.37
2022-09-09T15:45:57.901Z,23.34
2022-09-09T15:51:41.154Z,23.30
2022-09-09T15:57:05.069Z,23.29
2022-09-09T16:02:26.784Z,23.27
2022-09-09T16:07:49.004Z,23.26
2022-09-09T16:13:10.637Z,23.24
2022-09-09T16:18:44.072Z,23.22
2022-09-09T16:24:08.924Z,23.19
2022-09-09T16:29:30.581Z,23.18
2022-09-09T16:34:52.456Z,23.21
2022-09-09T16:40:14.267Z,23.22
2022-09-09T16:45:42.774Z,23.25
2022-09-09T16:51:12.382Z,23.26
2022-09-09T16:56:38.126Z,23.27
2022-09-09T17:02:00.213Z,23.27
2022-09-09T17:07:22.115Z,23.28
2022-09-09T17:12:44.121Z,23.28
2022-09-09T17:18:05.847Z,23.30
2022-09-09T17:23:28.706Z,23.30
2022-09-09T17:28:50.460Z,23.33
2022-09-09T17:34:12.211Z,23.34
2022-09-09T17:39:34.152Z,23.35
2022-09-09T17:44:55.950Z,23.36
2022-09-09T17:50:18.873Z,23.38
2022-09-09T17:55:40.700Z,23.37
2022-09-09T18:01:06.831Z,23.38
2022-09-09T18:06:32.227Z,23.37
2022-09-09T18:11:56.572Z,23.36
2022-09-09T18:17:18.264Z,23.34
2022-09-09T18:22:40.056Z,23.34
2022-09-09T18:28:01.769Z,23.33
2022-09-09T18:33:23.401Z,23.33
2022-09-09T18:38:45.488Z,23.32
2022-09-09T18:44:16.661Z,23.34
2022-09-09T18:49:38.328Z,23.33
2022-09-09T18:55:00.079Z,23.31
2022-09-09T19:00:21.713Z,23.33
2022-09-09T19:05:43.404Z,23.32
2022-09-09T19:11:10.234Z,23.30
2022-09-09T19:16:34.523Z,23.31
2022-09-09T19:21:57.803Z,23.32
2022-09-09T19:27:19.751Z,23.31
2022-09-09T19:32:56.911Z,23.30
2022-09-09T19:38:18.721Z,23.30
2022-09-09T19:43:40.989Z,23.30
2022-09-09T19:49:04.672Z,23.30
2022-09-09T19:54:26.436Z,23.31
2022-09-09T19:59:48.191Z,23.33
2022-09-09T20:05:09.922Z,23.33
2022-09-09T20:10:32.074Z,23.31
2022-09-09T20:16:06.057Z,23.30
2022-09-09T20:21:33.979Z,23.28
2022-09-09T20:26:56.516Z,23.27
2022-09-09T20:32:18.153Z,23.26
2022-09-09T20:37:42.884Z,23.24
2022-09-09T20:43:05.153Z,23.22
2022-09-09T20:48:27.361Z,23.21
2022-09-09T20:53:57.388Z,23.20
2022-09-09T20:59:22.124Z,23.18
2022-09-09T21:04:45.194Z,23.17
2022-09-09T21:10:07.282Z,23.15
2022-09-09T21:15:28.920Z,23.15
2022-09-09T21:20:51.167Z,23.13
2022-09-09T21:26:13.125Z,23.12
2022-09-09T21:31:34.960Z,23.10
2022-09-09T21:36:57.178Z,23.05
2022-09-09T21:42:19.297Z,23.05
2022-09-09T21:47:46.434Z,23.05
2022-09-09T21:53:10.299Z,23.03
2022-09-09T21:58:32.047Z,23.02
2022-09-09T22:03:53.697Z,23.02
2022-09-09T22:09:15.389Z,23.00
2022-09-09T22:14:37.568Z,23.00
2022-09-09T22:19:59.650Z,22.99
2022-09-09T22:25:21.274Z,22.99
2022-09-09T22:30:43.151Z,22.99
2022-09-09T22:36:05.248Z,22.98
2022-09-09T22:41:26.952Z,22.97
2022-09-09T22:46:48.864Z,22.96
2022-09-09T22:52:11.408Z,22.96
2022-09-09T22:57:33.064Z,22.95
2022-09-09T23:02:56.267Z,22.95
2022-09-09T23:08:18.897Z,22.94
2022-09-09T23:13:43.287Z,22.93
2022-09-09T23:19:08.577Z,22.92
2022-09-09T23:24:30.160Z,22.87
2022-09-09T23:29:51.954Z,22.91
2022-09-09T23:35:13.666Z,22.89
2022-09-09T23:40:35.323Z,22.87
2022-09-09T23:45:57.455Z,22.87
2022-09-09T23:51:23.967Z,22.87
2022-09-09T23:56:45.964Z,22.85
